sensor_id;sensor_type;location;lat;lon;timestamp;temperature;humidity
10722;DHT22;5412;59.450;18.124;2023-04-29T00:01:18;5.90;99.90
10722;DHT22;5412;59.450;18.124;2023-04-29T00:03:44;5.90;99.90
10722;DHT22;5412;59.450;18.124;2023-04-29T00:06:10;6.00;99.90
10722;DHT22;5412;59.450;18.124;2023-04-29T00:08:38;5.90;99.90
10722;DHT22;5412;59.450;18.124;2023-04-29T00:11:04;5.90;99.90
10722;DHT22;5412;59.450;18.124;2023-04-29T00:13:30;5.90;99.90
10722;DHT22;5412;59.450;18.124;2023-04-29T00:15:56;5.90;99.90
10722;DHT22;5412;59.450;18.124;2023-04-29T00:18:22;5.80;99.90
10722;DHT22;5412;59.450;18.124;2023-04-29T00:20:48;5.80;99.90
10722;DHT22;5412;59.450;18.124;2023-04-29T00:23:13;5.80;99.90
10722;DHT22;5412;59.450;18.124;2023-04-29T00:25:39;5.80;99.90
10722;DHT22;5412;59.450;18.124;2023-04-29T00:28:05;5.70;99.90
10722;DHT22;5412;59.450;18.124;2023-04-29T00:30:31;5.70;99.90
10722;DHT22;5412;59.450;18.124;2023-04-29T00:32:59;5.70;99.90
10722;DHT22;5412;59.450;18.124;2023-04-29T00:35:25;5.70;99.90
10722;DHT22;5412;59.450;18.124;2023-04-29T00:37:51;5.70;99.90
10722;DHT22;5412;59.450;18.124;2023-04-29T00:40:16;5.70;99.90
10722;DHT22;5412;59.450;18.124;2023-04-29T00:42:42;5.70;99.90
10722;DHT22;5412;59.450;18.124;2023-04-29T00:45:09;5.70;99.90
10722;DHT22;5412;59.450;18.124;2023-04-29T00:47:38;5.70;99.90
10722;DHT22;5412;59.450;18.124;2023-04-29T00:50:05;5.70;99.90
10722;DHT22;5412;59.450;18.124;2023-04-29T00:52:31;5.60;99.90
10722;DHT22;5412;59.450;18.124;2023-04-29T00:54:57;5.60;99.90
10722;DHT22;5412;59.450;18.124;2023-04-29T00:57:24;5.60;99.90
10722;DHT22;5412;59.450;18.124;2023-04-29T00:59:54;5.60;99.90
10722;DHT22;5412;59.450;18.124;2023-04-29T01:02:19;5.60;99.90
10722;DHT22;5412;59.450;18.124;2023-04-29T01:04:46;5.50;99.90
10722;DHT22;5412;59.450;18.124;2023-04-29T01:07:17;5.50;99.90
10722;DHT22;5412;59.450;18.124;2023-04-29T01:15:45;5.40;99.90
10722;DHT22;5412;59.450;18.124;2023-04-29T01:18:17;5.40;99.90
10722;DHT22;5412;59.450;18.124;2023-04-29T01:20:45;5.40;99.90
10722;DHT22;5412;59.450;18.124;2023-04-29T01:23:11;5.40;99.90
10722;DHT22;5412;59.450;18.124;2023-04-29T01:25:37;5.40;99.90
10722;DHT22;5412;59.450;18.124;2023-04-29T01:28:28;5.30;99.90
10722;DHT22;5412;59.450;18.124;2023-04-29T01:30:59;5.30;99.90
10722;DHT22;5412;59.450;18.124;2023-04-29T01:33:39;5.20;99.90
10722;DHT22;5412;59.450;18.124;2023-04-29T01:39:32;5.20;99.90
10722;DHT22;5412;59.450;18.124;2023-04-29T01:44:40;5.10;99.90
10722;DHT22;5412;59.450;18.124;2023-04-29T01:47:09;5.10;99.90
10722;DHT22;5412;59.450;18.124;2023-04-29T01:49:36;5.10;99.90
10722;DHT22;5412;59.450;18.124;2023-04-29T01:52:02;5.10;99.90
10722;DHT22;5412;59.450;18.124;2023-04-29T01:54:28;5.20;99.90
10722;DHT22;5412;59.450;18.124;2023-04-29T01:56:54;5.10;99.90
10722;DHT22;5412;59.450;18.124;2023-04-29T01:59:20;5.10;99.90
10722;DHT22;5412;59.450;18.124;2023-04-29T02:01:45;5.10;99.90
10722;DHT22;5412;59.450;18.124;2023-04-29T02:04:11;5.20;99.90
10722;DHT22;5412;59.450;18.124;2023-04-29T02:06:37;5.10;99.90
10722;DHT22;5412;59.450;18.124;2023-04-29T02:09:03;5.10;99.90
10722;DHT22;5412;59.450;18.124;2023-04-29T02:11:29;5.20;99.90
10722;DHT22;5412;59.450;18.124;2023-04-29T02:13:54;5.20;99.90
10722;DHT22;5412;59.450;18.124;2023-04-29T02:16:21;5.20;99.90
10722;DHT22;5412;59.450;18.124;2023-04-29T02:18:46;5.20;99.90
10722;DHT22;5412;59.450;18.124;2023-04-29T02:21:12;5.30;99.90
10722;DHT22;5412;59.450;18.124;2023-04-29T02:23:38;5.20;99.90
10722;DHT22;5412;59.450;18.124;2023-04-29T02:26:03;5.10;99.90
10722;DHT22;5412;59.450;18.124;2023-04-29T02:28:34;5.20;99.90
10722;DHT22;5412;59.450;18.124;2023-04-29T02:31:00;5.20;99.90
10722;DHT22;5412;59.450;18.124;2023-04-29T02:33:26;5.20;99.90
10722;DHT22;5412;59.450;18.124;2023-04-29T02:35:51;5.20;99.90
10722;DHT22;5412;59.450;18.124;2023-04-29T02:38:17;5.20;99.90
10722;DHT22;5412;59.450;18.124;2023-04-29T02:40:44;5.30;99.90
10722;DHT22;5412;59.450;18.124;2023-04-29T02:43:10;5.30;99.90
10722;DHT22;5412;59.450;18.124;2023-04-29T02:45:37;5.20;99.90
10722;DHT22;5412;59.450;18.124;2023-04-29T02:48:04;5.20;99.90
10722;DHT22;5412;59.450;18.124;2023-04-29T02:50:29;5.20;99.90
10722;DHT22;5412;59.450;18.124;2023-04-29T02:52:55;5.20;99.90
10722;DHT22;5412;59.450;18.124;2023-04-29T02:55:22;5.30;99.90
10722;DHT22;5412;59.450;18.124;2023-04-29T02:57:47;5.20;99.90
10722;DHT22;5412;59.450;18.124;2023-04-29T03:00:13;5.20;99.90
10722;DHT22;5412;59.450;18.124;2023-04-29T03:02:39;5.20;99.90
10722;DHT22;5412;59.450;18.124;2023-04-29T03:05:05;5.20;99.90
10722;DHT22;5412;59.450;18.124;2023-04-29T03:07:31;5.20;99.90
10722;DHT22;5412;59.450;18.124;2023-04-29T03:09:57;5.20;99.90
10722;DHT22;5412;59.450;18.124;2023-04-29T03:12:23;5.20;99.90
10722;DHT22;5412;59.450;18.124;2023-04-29T03:14:49;5.20;99.90
10722;DHT22;5412;59.450;18.124;2023-04-29T03:17:14;5.20;99.90
10722;DHT22;5412;59.450;18.124;2023-04-29T03:19:40;5.10;99.90
10722;DHT22;5412;59.450;18.124;2023-04-29T03:22:06;5.10;99.90
10722;DHT22;5412;59.450;18.124;2023-04-29T03:24:36;5.10;99.90
10722;DHT22;5412;59.450;18.124;2023-04-29T03:27:03;5.10;99.90
10722;DHT22;5412;59.450;18.124;2023-04-29T03:29:30;5.10;99.90
10722;DHT22;5412;59.450;18.124;2023-04-29T03:31:56;5.10;99.90
10722;DHT22;5412;59.450;18.124;2023-04-29T03:34:22;5.10;99.90
10722;DHT22;5412;59.450;18.124;2023-04-29T03:36:49;5.10;99.90
10722;DHT22;5412;59.450;18.124;2023-04-29T03:39:16;5.10;99.90
10722;DHT22;5412;59.450;18.124;2023-04-29T03:41:41;5.10;99.90
10722;DHT22;5412;59.450;18.124;2023-04-29T03:44:07;5.10;99.90
10722;DHT22;5412;59.450;18.124;2023-04-29T03:46:33;5.10;99.90
10722;DHT22;5412;59.450;18.124;2023-04-29T03:48:59;5.10;99.90
10722;DHT22;5412;59.450;18.124;2023-04-29T03:51:26;5.10;99.90
10722;DHT22;5412;59.450;18.124;2023-04-29T03:53:53;5.20;99.90
10722;DHT22;5412;59.450;18.124;2023-04-29T03:56:20;5.20;99.90
10722;DHT22;5412;59.450;18.124;2023-04-29T03:58:47;5.20;99.90
10722;DHT22;5412;59.450;18.124;2023-04-29T04:01:13;5.30;99.90
10722;DHT22;5412;59.450;18.124;2023-04-29T04:03:40;5.30;99.90
10722;DHT22;5412;59.450;18.124;2023-04-29T04:06:07;5.20;99.90
10722;DHT22;5412;59.450;18.124;2023-04-29T04:08:33;5.30;99.90
10722;DHT22;5412;59.450;18.124;2023-04-29T04:10:59;5.30;99.90
10722;DHT22;5412;59.450;18.124;2023-04-29T04:13:30;5.30;99.90
10722;DHT22;5412;59.450;18.124;2023-04-29T04:15:56;5.30;99.90
10722;DHT22;5412;59.450;18.124;2023-04-29T04:18:22;5.40;99.90
10722;DHT22;5412;59.450;18.124;2023-04-29T04:20:47;5.40;99.90
10722;DHT22;5412;59.450;18.124;2023-04-29T04:23:14;5.50;99.90
10722;DHT22;5412;59.450;18.124;2023-04-29T04:25:47;5.50;99.90
10722;DHT22;5412;59.450;18.124;2023-04-29T04:28:13;5.70;99.90
10722;DHT22;5412;59.450;18.124;2023-04-29T04:30:38;5.80;99.90
10722;DHT22;5412;59.450;18.124;2023-04-29T04:33:04;5.80;99.90
10722;DHT22;5412;59.450;18.124;2023-04-29T04:35:30;5.90;99.90
10722;DHT22;5412;59.450;18.124;2023-04-29T04:37:56;6.00;99.90
10722;DHT22;5412;59.450;18.124;2023-04-29T04:40:23;6.00;99.90
10722;DHT22;5412;59.450;18.124;2023-04-29T04:42:48;6.10;99.90
10722;DHT22;5412;59.450;18.124;2023-04-29T04:45:14;6.20;99.90
10722;DHT22;5412;59.450;18.124;2023-04-29T04:47:40;6.30;99.90
10722;DHT22;5412;59.450;18.124;2023-04-29T04:50:07;6.30;99.90
10722;DHT22;5412;59.450;18.124;2023-04-29T04:52:33;6.30;99.90
10722;DHT22;5412;59.450;18.124;2023-04-29T04:54:59;6.40;99.90
10722;DHT22;5412;59.450;18.124;2023-04-29T04:57:25;6.50;99.90
10722;DHT22;5412;59.450;18.124;2023-04-29T04:59:51;6.60;99.90
10722;DHT22;5412;59.450;18.124;2023-04-29T05:02:17;6.70;99.90
10722;DHT22;5412;59.450;18.124;2023-04-29T05:04:42;6.70;99.90
10722;DHT22;5412;59.450;18.124;2023-04-29T05:07:09;6.80;99.90
10722;DHT22;5412;59.450;18.124;2023-04-29T05:09:35;6.80;99.90
10722;DHT22;5412;59.450;18.124;2023-04-29T05:12:01;6.80;99.90
10722;DHT22;5412;59.450;18.124;2023-04-29T05:14:27;6.90;99.90
10722;DHT22;5412;59.450;18.124;2023-04-29T05:16:57;7.00;99.90
10722;DHT22;5412;59.450;18.124;2023-04-29T05:19:23;7.20;99.90
10722;DHT22;5412;59.450;18.124;2023-04-29T05:21:49;7.20;99.90
10722;DHT22;5412;59.450;18.124;2023-04-29T05:24:15;7.30;99.90
10722;DHT22;5412;59.450;18.124;2023-04-29T05:26:40;7.40;99.90
10722;DHT22;5412;59.450;18.124;2023-04-29T05:29:09;7.50;99.90
10722;DHT22;5412;59.450;18.124;2023-04-29T05:31:35;7.60;99.90
10722;DHT22;5412;59.450;18.124;2023-04-29T05:34:01;7.80;99.90
10722;DHT22;5412;59.450;18.124;2023-04-29T05:36:27;7.90;99.90
10722;DHT22;5412;59.450;18.124;2023-04-29T05:38:53;8.10;99.90
10722;DHT22;5412;59.450;18.124;2023-04-29T05:41:19;8.10;99.90
10722;DHT22;5412;59.450;18.124;2023-04-29T05:43:45;8.20;99.90
10722;DHT22;5412;59.450;18.124;2023-04-29T05:46:11;8.30;99.90
10722;DHT22;5412;59.450;18.124;2023-04-29T05:48:37;8.30;99.90
10722;DHT22;5412;59.450;18.124;2023-04-29T05:51:03;8.30;99.90
10722;DHT22;5412;59.450;18.124;2023-04-29T05:53:29;8.40;99.90
10722;DHT22;5412;59.450;18.124;2023-04-29T05:55:55;8.40;99.90
10722;DHT22;5412;59.450;18.124;2023-04-29T05:58:21;8.40;99.90
10722;DHT22;5412;59.450;18.124;2023-04-29T06:00:47;8.60;99.90
10722;DHT22;5412;59.450;18.124;2023-04-29T06:03:14;8.60;99.90
10722;DHT22;5412;59.450;18.124;2023-04-29T06:05:39;8.70;99.90
10722;DHT22;5412;59.450;18.124;2023-04-29T06:08:06;8.80;99.90
10722;DHT22;5412;59.450;18.124;2023-04-29T06:10:31;8.80;99.90
10722;DHT22;5412;59.450;18.124;2023-04-29T06:12:58;9.00;99.90
10722;DHT22;5412;59.450;18.124;2023-04-29T06:15:24;9.00;99.90
10722;DHT22;5412;59.450;18.124;2023-04-29T06:17:50;9.10;99.90
10722;DHT22;5412;59.450;18.124;2023-04-29T06:20:16;9.20;99.90
10722;DHT22;5412;59.450;18.124;2023-04-29T06:22:42;9.20;99.90
10722;DHT22;5412;59.450;18.124;2023-04-29T06:25:08;9.10;99.90
10722;DHT22;5412;59.450;18.124;2023-04-29T06:27:34;9.10;99.90
10722;DHT22;5412;59.450;18.124;2023-04-29T06:30:00;9.10;99.90
10722;DHT22;5412;59.450;18.124;2023-04-29T06:32:26;9.10;99.90
10722;DHT22;5412;59.450;18.124;2023-04-29T06:34:51;9.10;99.90
10722;DHT22;5412;59.450;18.124;2023-04-29T06:37:17;9.20;99.90
10722;DHT22;5412;59.450;18.124;2023-04-29T06:39:43;9.10;99.90
10722;DHT22;5412;59.450;18.124;2023-04-29T06:42:09;9.20;99.90
10722;DHT22;5412;59.450;18.124;2023-04-29T06:44:35;9.40;99.90
10722;DHT22;5412;59.450;18.124;2023-04-29T06:47:01;9.50;99.90
10722;DHT22;5412;59.450;18.124;2023-04-29T06:49:26;9.60;99.90
10722;DHT22;5412;59.450;18.124;2023-04-29T06:51:52;9.70;99.90
10722;DHT22;5412;59.450;18.124;2023-04-29T06:54:18;9.80;99.90
10722;DHT22;5412;59.450;18.124;2023-04-29T06:56:44;9.70;99.90
10722;DHT22;5412;59.450;18.124;2023-04-29T06:59:09;9.90;99.90
10722;DHT22;5412;59.450;18.124;2023-04-29T07:01:37;10.00;99.90
10722;DHT22;5412;59.450;18.124;2023-04-29T07:04:03;10.20;99.90
10722;DHT22;5412;59.450;18.124;2023-04-29T07:06:29;10.20;99.90
10722;DHT22;5412;59.450;18.124;2023-04-29T07:08:55;10.20;99.90
10722;DHT22;5412;59.450;18.124;2023-04-29T07:11:21;10.50;99.90
10722;DHT22;5412;59.450;18.124;2023-04-29T07:13:51;10.50;99.90
10722;DHT22;5412;59.450;18.124;2023-04-29T07:16:18;10.60;99.90
10722;DHT22;5412;59.450;18.124;2023-04-29T07:18:49;10.80;99.90
10722;DHT22;5412;59.450;18.124;2023-04-29T07:21:15;11.00;99.90
10722;DHT22;5412;59.450;18.124;2023-04-29T07:23:41;11.10;99.90
10722;DHT22;5412;59.450;18.124;2023-04-29T07:26:14;11.20;99.90
10722;DHT22;5412;59.450;18.124;2023-04-29T07:28:41;11.30;99.90
10722;DHT22;5412;59.450;18.124;2023-04-29T07:31:07;11.40;99.90
10722;DHT22;5412;59.450;18.124;2023-04-29T07:33:34;11.50;99.90
10722;DHT22;5412;59.450;18.124;2023-04-29T07:36:01;11.60;99.90
10722;DHT22;5412;59.450;18.124;2023-04-29T07:38:26;11.50;99.90
10722;DHT22;5412;59.450;18.124;2023-04-29T07:40:54;11.60;99.90
10722;DHT22;5412;59.450;18.124;2023-04-29T07:43:19;11.60;99.90
10722;DHT22;5412;59.450;18.124;2023-04-29T07:45:46;11.50;99.90
10722;DHT22;5412;59.450;18.124;2023-04-29T07:48:12;11.50;99.90
10722;DHT22;5412;59.450;18.124;2023-04-29T07:50:38;11.40;99.90
10722;DHT22;5412;59.450;18.124;2023-04-29T07:53:04;11.50;99.90
10722;DHT22;5412;59.450;18.124;2023-04-29T07:55:30;11.80;99.90
10722;DHT22;5412;59.450;18.124;2023-04-29T07:57:57;12.00;99.90
10722;DHT22;5412;59.450;18.124;2023-04-29T08:00:23;12.10;99.90
10722;DHT22;5412;59.450;18.124;2023-04-29T08:02:55;12.20;99.90
10722;DHT22;5412;59.450;18.124;2023-04-29T08:05:22;12.30;99.90
10722;DHT22;5412;59.450;18.124;2023-04-29T08:07:51;12.30;99.90
10722;DHT22;5412;59.450;18.124;2023-04-29T08:10:17;12.50;99.90
10722;DHT22;5412;59.450;18.124;2023-04-29T08:12:47;12.60;99.90
10722;DHT22;5412;59.450;18.124;2023-04-29T08:15:12;12.60;99.90
10722;DHT22;5412;59.450;18.124;2023-04-29T08:17:38;12.60;99.90
10722;DHT22;5412;59.450;18.124;2023-04-29T08:20:05;12.60;99.90
10722;DHT22;5412;59.450;18.124;2023-04-29T08:22:32;12.50;99.90
10722;DHT22;5412;59.450;18.124;2023-04-29T08:24:58;12.60;99.90
10722;DHT22;5412;59.450;18.124;2023-04-29T08:27:24;12.50;99.90
10722;DHT22;5412;59.450;18.124;2023-04-29T08:29:50;12.30;99.90
10722;DHT22;5412;59.450;18.124;2023-04-29T08:32:16;12.30;99.90
10722;DHT22;5412;59.450;18.124;2023-04-29T08:34:42;12.00;99.90
10722;DHT22;5412;59.450;18.124;2023-04-29T08:37:09;12.00;99.90
10722;DHT22;5412;59.450;18.124;2023-04-29T08:39:35;11.40;99.90
10722;DHT22;5412;59.450;18.124;2023-04-29T08:42:07;11.10;99.90
10722;DHT22;5412;59.450;18.124;2023-04-29T08:44:33;10.80;99.90
10722;DHT22;5412;59.450;18.124;2023-04-29T08:47:00;10.90;99.90
10722;DHT22;5412;59.450;18.124;2023-04-29T08:49:28;11.00;99.90
10722;DHT22;5412;59.450;18.124;2023-04-29T08:51:53;11.00;99.90
10722;DHT22;5412;59.450;18.124;2023-04-29T08:54:19;11.20;99.90
10722;DHT22;5412;59.450;18.124;2023-04-29T08:56:45;11.30;99.90
10722;DHT22;5412;59.450;18.124;2023-04-29T08:59:14;11.50;99.90
10722;DHT22;5412;59.450;18.124;2023-04-29T09:01:42;11.60;99.90
10722;DHT22;5412;59.450;18.124;2023-04-29T09:06:34;11.80;99.90
10722;DHT22;5412;59.450;18.124;2023-04-29T09:09:01;11.60;99.90
10722;DHT22;5412;59.450;18.124;2023-04-29T09:11:28;11.70;99.90
10722;DHT22;5412;59.450;18.124;2023-04-29T09:13:59;11.70;99.90
10722;DHT22;5412;59.450;18.124;2023-04-29T09:16:26;11.80;99.90
10722;DHT22;5412;59.450;18.124;2023-04-29T09:18:52;11.90;99.90
10722;DHT22;5412;59.450;18.124;2023-04-29T09:21:28;12.00;99.90
10722;DHT22;5412;59.450;18.124;2023-04-29T09:24:01;12.00;99.90
10722;DHT22;5412;59.450;18.124;2023-04-29T09:26:40;11.80;99.90
10722;DHT22;5412;59.450;18.124;2023-04-29T09:29:11;11.70;99.90
10722;DHT22;5412;59.450;18.124;2023-04-29T09:31:38;11.60;99.90
10722;DHT22;5412;59.450;18.124;2023-04-29T09:34:05;11.60;99.90
10722;DHT22;5412;59.450;18.124;2023-04-29T09:36:50;11.60;99.90
10722;DHT22;5412;59.450;18.124;2023-04-29T09:39:22;11.60;99.90
10722;DHT22;5412;59.450;18.124;2023-04-29T09:44:21;11.70;99.90
10722;DHT22;5412;59.450;18.124;2023-04-29T09:51:58;11.80;99.90
10722;DHT22;5412;59.450;18.124;2023-04-29T09:54:25;11.80;99.90
10722;DHT22;5412;59.450;18.124;2023-04-29T09:56:54;11.70;99.90
10722;DHT22;5412;59.450;18.124;2023-04-29T09:59:20;11.50;99.90
10722;DHT22;5412;59.450;18.124;2023-04-29T10:01:55;11.50;99.90
10722;DHT22;5412;59.450;18.124;2023-04-29T10:04:22;11.50;99.90
10722;DHT22;5412;59.450;18.124;2023-04-29T10:06:50;11.60;99.90
10722;DHT22;5412;59.450;18.124;2023-04-29T10:09:17;11.60;99.90
10722;DHT22;5412;59.450;18.124;2023-04-29T10:11:44;11.60;99.90
10722;DHT22;5412;59.450;18.124;2023-04-29T10:14:12;11.60;99.90
10722;DHT22;5412;59.450;18.124;2023-04-29T10:17:06;11.70;99.90
10722;DHT22;5412;59.450;18.124;2023-04-29T10:19:54;11.80;99.90
10722;DHT22;5412;59.450;18.124;2023-04-29T10:22:33;11.90;99.90
10722;DHT22;5412;59.450;18.124;2023-04-29T10:25:00;11.90;99.90
10722;DHT22;5412;59.450;18.124;2023-04-29T10:27:28;12.00;99.90
10722;DHT22;5412;59.450;18.124;2023-04-29T10:29:56;11.90;99.90
10722;DHT22;5412;59.450;18.124;2023-04-29T10:32:24;11.80;99.90
10722;DHT22;5412;59.450;18.124;2023-04-29T10:34:53;11.70;99.90
10722;DHT22;5412;59.450;18.124;2023-04-29T10:37:20;11.70;99.90
10722;DHT22;5412;59.450;18.124;2023-04-29T10:39:52;11.60;99.90
10722;DHT22;5412;59.450;18.124;2023-04-29T10:42:42;11.60;99.90
10722;DHT22;5412;59.450;18.124;2023-04-29T10:45:19;11.60;99.90
10722;DHT22;5412;59.450;18.124;2023-04-29T10:50:33;11.30;96.30
10722;DHT22;5412;59.450;18.124;2023-04-29T10:53:01;11.20;95.70
10722;DHT22;5412;59.450;18.124;2023-04-29T10:55:28;11.00;94.70
10722;DHT22;5412;59.450;18.124;2023-04-29T10:57:55;10.90;95.40
10722;DHT22;5412;59.450;18.124;2023-04-29T11:00:32;10.90;95.10
10722;DHT22;5412;59.450;18.124;2023-04-29T11:02:59;10.90;95.10
10722;DHT22;5412;59.450;18.124;2023-04-29T11:05:45;10.90;95.40
10722;DHT22;5412;59.450;18.124;2023-04-29T11:08:14;10.80;95.30
10722;DHT22;5412;59.450;18.124;2023-04-29T11:10:58;10.80;94.70
10722;DHT22;5412;59.450;18.124;2023-04-29T11:13:26;10.90;93.20
10722;DHT22;5412;59.450;18.124;2023-04-29T11:16:06;10.90;92.40
10722;DHT22;5412;59.450;18.124;2023-04-29T11:18:33;10.80;93.20
10722;DHT22;5412;59.450;18.124;2023-04-29T11:23:38;10.90;95.00
10722;DHT22;5412;59.450;18.124;2023-04-29T11:26:05;11.00;95.80
10722;DHT22;5412;59.450;18.124;2023-04-29T11:28:32;11.00;96.10
10722;DHT22;5412;59.450;18.124;2023-04-29T11:30:59;11.00;95.80
10722;DHT22;5412;59.450;18.124;2023-04-29T11:33:25;10.90;95.20
10722;DHT22;5412;59.450;18.124;2023-04-29T11:35:53;10.90;94.90
10722;DHT22;5412;59.450;18.124;2023-04-29T11:38:25;11.00;93.90
10722;DHT22;5412;59.450;18.124;2023-04-29T11:40:51;11.00;95.00
10722;DHT22;5412;59.450;18.124;2023-04-29T11:43:21;11.00;95.60
10722;DHT22;5412;59.450;18.124;2023-04-29T11:45:47;11.00;95.30
10722;DHT22;5412;59.450;18.124;2023-04-29T11:48:20;11.00;94.60
10722;DHT22;5412;59.450;18.124;2023-04-29T11:50:48;10.90;92.20
10722;DHT22;5412;59.450;18.124;2023-04-29T11:53:14;10.70;87.50
10722;DHT22;5412;59.450;18.124;2023-04-29T11:55:46;10.60;85.00
10722;DHT22;5412;59.450;18.124;2023-04-29T11:58:16;10.40;81.30
10722;DHT22;5412;59.450;18.124;2023-04-29T12:00:42;10.40;83.00
10722;DHT22;5412;59.450;18.124;2023-04-29T12:03:19;10.40;86.40
10722;DHT22;5412;59.450;18.124;2023-04-29T12:05:53;10.50;87.90
10722;DHT22;5412;59.450;18.124;2023-04-29T12:08:23;10.50;87.80
10722;DHT22;5412;59.450;18.124;2023-04-29T12:10:50;10.60;88.00
10722;DHT22;5412;59.450;18.124;2023-04-29T12:13:17;10.60;86.80
10722;DHT22;5412;59.450;18.124;2023-04-29T12:15:47;10.60;86.90
10722;DHT22;5412;59.450;18.124;2023-04-29T12:18:16;10.70;88.10
10722;DHT22;5412;59.450;18.124;2023-04-29T12:20:43;10.70;89.60
10722;DHT22;5412;59.450;18.124;2023-04-29T12:25:38;10.60;88.70
10722;DHT22;5412;59.450;18.124;2023-04-29T12:28:03;10.50;89.70
10722;DHT22;5412;59.450;18.124;2023-04-29T12:30:29;10.30;90.10
10722;DHT22;5412;59.450;18.124;2023-04-29T12:32:58;10.20;90.10
10722;DHT22;5412;59.450;18.124;2023-04-29T12:35:24;10.10;90.70
10722;DHT22;5412;59.450;18.124;2023-04-29T12:37:50;10.30;91.10
10722;DHT22;5412;59.450;18.124;2023-04-29T12:40:16;10.30;91.60
10722;DHT22;5412;59.450;18.124;2023-04-29T12:42:44;10.40;92.40
10722;DHT22;5412;59.450;18.124;2023-04-29T12:45:30;10.40;92.60
10722;DHT22;5412;59.450;18.124;2023-04-29T12:47:57;10.40;93.40
10722;DHT22;5412;59.450;18.124;2023-04-29T12:50:34;10.50;94.30
10722;DHT22;5412;59.450;18.124;2023-04-29T12:53:02;10.70;94.90
10722;DHT22;5412;59.450;18.124;2023-04-29T12:55:32;11.00;95.50
10722;DHT22;5412;59.450;18.124;2023-04-29T12:57:59;11.10;95.80
10722;DHT22;5412;59.450;18.124;2023-04-29T13:00:24;11.10;96.40
10722;DHT22;5412;59.450;18.124;2023-04-29T13:02:50;11.20;96.30
10722;DHT22;5412;59.450;18.124;2023-04-29T13:05:16;10.90;97.80
10722;DHT22;5412;59.450;18.124;2023-04-29T13:07:42;10.80;98.90
10722;DHT22;5412;59.450;18.124;2023-04-29T13:10:08;10.70;99.70
10722;DHT22;5412;59.450;18.124;2023-04-29T13:12:36;10.70;99.90
10722;DHT22;5412;59.450;18.124;2023-04-29T13:15:02;10.80;99.90
10722;DHT22;5412;59.450;18.124;2023-04-29T13:17:28;10.90;99.90
10722;DHT22;5412;59.450;18.124;2023-04-29T13:19:54;11.00;99.90
10722;DHT22;5412;59.450;18.124;2023-04-29T13:22:20;10.80;99.90
10722;DHT22;5412;59.450;18.124;2023-04-29T13:24:46;10.50;99.90
10722;DHT22;5412;59.450;18.124;2023-04-29T13:27:12;10.30;99.90
10722;DHT22;5412;59.450;18.124;2023-04-29T13:29:37;10.20;99.90
10722;DHT22;5412;59.450;18.124;2023-04-29T13:32:03;10.20;99.90
10722;DHT22;5412;59.450;18.124;2023-04-29T13:34:29;10.20;99.90
10722;DHT22;5412;59.450;18.124;2023-04-29T13:36:55;10.20;99.90
10722;DHT22;5412;59.450;18.124;2023-04-29T13:39:21;10.20;99.90
10722;DHT22;5412;59.450;18.124;2023-04-29T13:41:47;10.30;99.90
10722;DHT22;5412;59.450;18.124;2023-04-29T13:44:13;10.00;99.90
10722;DHT22;5412;59.450;18.124;2023-04-29T13:46:39;10.00;99.90
10722;DHT22;5412;59.450;18.124;2023-04-29T13:49:05;10.00;99.90
10722;DHT22;5412;59.450;18.124;2023-04-29T13:51:31;10.00;99.90
10722;DHT22;5412;59.450;18.124;2023-04-29T13:53:56;10.20;99.90
10722;DHT22;5412;59.450;18.124;2023-04-29T13:56:23;10.40;99.90
10722;DHT22;5412;59.450;18.124;2023-04-29T13:58:50;10.50;99.90
10722;DHT22;5412;59.450;18.124;2023-04-29T14:01:16;10.70;99.90
10722;DHT22;5412;59.450;18.124;2023-04-29T14:03:42;10.70;99.90
10722;DHT22;5412;59.450;18.124;2023-04-29T14:06:09;10.70;99.90
10722;DHT22;5412;59.450;18.124;2023-04-29T14:08:34;10.70;99.90
10722;DHT22;5412;59.450;18.124;2023-04-29T14:11:00;10.80;99.90
10722;DHT22;5412;59.450;18.124;2023-04-29T14:13:26;10.70;99.90
10722;DHT22;5412;59.450;18.124;2023-04-29T14:15:52;10.60;99.90
10722;DHT22;5412;59.450;18.124;2023-04-29T14:18:18;10.50;99.90
10722;DHT22;5412;59.450;18.124;2023-04-29T14:20:44;10.60;99.90
10722;DHT22;5412;59.450;18.124;2023-04-29T14:23:10;10.50;99.90
10722;DHT22;5412;59.450;18.124;2023-04-29T14:25:36;10.50;99.90
10722;DHT22;5412;59.450;18.124;2023-04-29T14:28:02;10.70;99.90
10722;DHT22;5412;59.450;18.124;2023-04-29T14:30:28;10.70;99.90
10722;DHT22;5412;59.450;18.124;2023-04-29T14:32:54;10.80;99.90
10722;DHT22;5412;59.450;18.124;2023-04-29T14:35:20;10.80;99.90
10722;DHT22;5412;59.450;18.124;2023-04-29T14:37:46;10.70;99.90
10722;DHT22;5412;59.450;18.124;2023-04-29T14:40:12;10.60;99.90
10722;DHT22;5412;59.450;18.124;2023-04-29T14:42:37;10.70;99.90
10722;DHT22;5412;59.450;18.124;2023-04-29T14:45:03;10.80;99.90
10722;DHT22;5412;59.450;18.124;2023-04-29T14:47:29;10.80;99.90
10722;DHT22;5412;59.450;18.124;2023-04-29T14:49:55;10.80;99.90
10722;DHT22;5412;59.450;18.124;2023-04-29T14:52:21;10.70;99.90
10722;DHT22;5412;59.450;18.124;2023-04-29T14:54:46;10.70;99.90
10722;DHT22;5412;59.450;18.124;2023-04-29T14:57:12;10.90;99.90
10722;DHT22;5412;59.450;18.124;2023-04-29T14:59:38;11.00;99.90
10722;DHT22;5412;59.450;18.124;2023-04-29T15:02:03;10.90;99.90
10722;DHT22;5412;59.450;18.124;2023-04-29T15:04:29;10.80;99.90
10722;DHT22;5412;59.450;18.124;2023-04-29T15:06:56;10.60;99.90
10722;DHT22;5412;59.450;18.124;2023-04-29T15:09:22;10.90;99.90
10722;DHT22;5412;59.450;18.124;2023-04-29T15:11:49;11.40;99.90
10722;DHT22;5412;59.450;18.124;2023-04-29T15:14:15;11.40;99.90
10722;DHT22;5412;59.450;18.124;2023-04-29T15:16:41;11.30;99.90
10722;DHT22;5412;59.450;18.124;2023-04-29T15:19:06;10.90;99.90
10722;DHT22;5412;59.450;18.124;2023-04-29T15:21:32;10.80;99.90
10722;DHT22;5412;59.450;18.124;2023-04-29T15:23:58;10.50;99.90
10722;DHT22;5412;59.450;18.124;2023-04-29T15:26:25;10.50;99.90
10722;DHT22;5412;59.450;18.124;2023-04-29T15:28:51;10.50;99.90
10722;DHT22;5412;59.450;18.124;2023-04-29T15:31:17;10.40;99.90
10722;DHT22;5412;59.450;18.124;2023-04-29T15:33:43;10.40;99.90
10722;DHT22;5412;59.450;18.124;2023-04-29T15:36:09;10.40;99.90
10722;DHT22;5412;59.450;18.124;2023-04-29T15:38:35;10.20;99.90
10722;DHT22;5412;59.450;18.124;2023-04-29T15:41:01;10.10;99.90
10722;DHT22;5412;59.450;18.124;2023-04-29T15:43:28;10.20;99.90
10722;DHT22;5412;59.450;18.124;2023-04-29T15:45:54;10.10;99.90
10722;DHT22;5412;59.450;18.124;2023-04-29T15:48:20;10.00;99.90
10722;DHT22;5412;59.450;18.124;2023-04-29T15:50:46;9.80;99.90
10722;DHT22;5412;59.450;18.124;2023-04-29T15:53:12;9.70;99.90
10722;DHT22;5412;59.450;18.124;2023-04-29T15:55:38;9.40;99.90
10722;DHT22;5412;59.450;18.124;2023-04-29T15:58:03;9.20;99.90
10722;DHT22;5412;59.450;18.124;2023-04-29T16:00:29;9.00;99.90
10722;DHT22;5412;59.450;18.124;2023-04-29T16:02:55;9.00;99.90
10722;DHT22;5412;59.450;18.124;2023-04-29T16:05:21;8.80;99.90
10722;DHT22;5412;59.450;18.124;2023-04-29T16:07:47;8.50;99.90